sensor_id;sensor_type;location;lat;lon;timestamp;temperature;humidity
48328;DHT22;34136;51.022;7.082;2023-05-29T00:01:13;16.70;1.00
48328;DHT22;34136;51.022;7.082;2023-05-29T00:03:59;16.70;1.00
48328;DHT22;34136;51.022;7.082;2023-05-29T00:06:45;16.70;1.00
48328;DHT22;34136;51.022;7.082;2023-05-29T00:09:31;16.70;1.00
48328;DHT22;34136;51.022;7.082;2023-05-29T00:12:17;16.60;1.00
48328;DHT22;34136;51.022;7.082;2023-05-29T00:15:04;16.70;1.00
48328;DHT22;34136;51.022;7.082;2023-05-29T00:17:50;16.60;1.00
48328;DHT22;34136;51.022;7.082;2023-05-29T00:20:36;16.50;1.00
48328;DHT22;34136;51.022;7.082;2023-05-29T00:23:23;16.50;1.00
48328;DHT22;34136;51.022;7.082;2023-05-29T00:26:09;16.40;1.00
48328;DHT22;34136;51.022;7.082;2023-05-29T00:28:57;16.40;1.00
48328;DHT22;34136;51.022;7.082;2023-05-29T00:31:44;16.60;1.00
48328;DHT22;34136;51.022;7.082;2023-05-29T00:34:29;16.60;1.00
48328;DHT22;34136;51.022;7.082;2023-05-29T00:37:16;16.50;1.00
48328;DHT22;34136;51.022;7.082;2023-05-29T00:40:02;16.60;1.00
48328;DHT22;34136;51.022;7.082;2023-05-29T00:42:49;16.50;1.00
48328;DHT22;34136;51.022;7.082;2023-05-29T00:45:35;16.40;1.00
48328;DHT22;34136;51.022;7.082;2023-05-29T00:48:22;16.40;1.00
48328;DHT22;34136;51.022;7.082;2023-05-29T00:51:09;16.40;1.00
48328;DHT22;34136;51.022;7.082;2023-05-29T00:53:57;16.40;1.00
48328;DHT22;34136;51.022;7.082;2023-05-29T00:56:44;16.20;1.00
48328;DHT22;34136;51.022;7.082;2023-05-29T00:59:32;16.10;1.00
48328;DHT22;34136;51.022;7.082;2023-05-29T01:02:19;16.10;1.00
48328;DHT22;34136;51.022;7.082;2023-05-29T01:05:06;16.00;1.00
48328;DHT22;34136;51.022;7.082;2023-05-29T01:07:53;16.00;1.00
48328;DHT22;34136;51.022;7.082;2023-05-29T01:10:39;16.10;1.00
48328;DHT22;34136;51.022;7.082;2023-05-29T01:13:28;16.00;1.00
48328;DHT22;34136;51.022;7.082;2023-05-29T01:16:24;16.00;1.00
48328;DHT22;34136;51.022;7.082;2023-05-29T01:28:53;15.50;1.00
48328;DHT22;34136;51.022;7.082;2023-05-29T01:31:43;15.30;1.00
48328;DHT22;34136;51.022;7.082;2023-05-29T01:34:30;15.30;1.00
48328;DHT22;34136;51.022;7.082;2023-05-29T01:37:16;15.20;1.00
48328;DHT22;34136;51.022;7.082;2023-05-29T01:40:03;15.20;1.00
48328;DHT22;34136;51.022;7.082;2023-05-29T01:42:49;15.30;1.00
48328;DHT22;34136;51.022;7.082;2023-05-29T01:45:36;15.20;1.00
48328;DHT22;34136;51.022;7.082;2023-05-29T01:48:23;15.10;1.00
48328;DHT22;34136;51.022;7.082;2023-05-29T01:51:11;15.10;1.00
48328;DHT22;34136;51.022;7.082;2023-05-29T01:53:58;15.20;1.00
48328;DHT22;34136;51.022;7.082;2023-05-29T01:56:47;15.30;1.00
48328;DHT22;34136;51.022;7.082;2023-05-29T01:59:34;15.30;1.00
48328;DHT22;34136;51.022;7.082;2023-05-29T02:02:22;15.20;1.00
48328;DHT22;34136;51.022;7.082;2023-05-29T02:05:10;15.00;1.00
48328;DHT22;34136;51.022;7.082;2023-05-29T02:07:56;14.90;1.00
48328;DHT22;34136;51.022;7.082;2023-05-29T02:10:42;14.90;1.00
48328;DHT22;34136;51.022;7.082;2023-05-29T02:13:28;14.90;1.00
48328;DHT22;34136;51.022;7.082;2023-05-29T02:16:15;14.90;1.00
48328;DHT22;34136;51.022;7.082;2023-05-29T02:19:01;14.90;1.00
48328;DHT22;34136;51.022;7.082;2023-05-29T02:21:48;14.60;1.00
48328;DHT22;34136;51.022;7.082;2023-05-29T02:24:34;14.60;1.00
48328;DHT22;34136;51.022;7.082;2023-05-29T02:27:20;14.70;1.00
48328;DHT22;34136;51.022;7.082;2023-05-29T02:30:07;14.60;1.00
48328;DHT22;34136;51.022;7.082;2023-05-29T02:32:54;14.50;1.00
48328;DHT22;34136;51.022;7.082;2023-05-29T02:35:40;14.40;1.00
48328;DHT22;34136;51.022;7.082;2023-05-29T02:38:27;14.30;1.00
48328;DHT22;34136;51.022;7.082;2023-05-29T02:41:13;14.30;1.00
48328;DHT22;34136;51.022;7.082;2023-05-29T02:44:00;14.20;1.00
48328;DHT22;34136;51.022;7.082;2023-05-29T02:46:46;14.20;1.00
48328;DHT22;34136;51.022;7.082;2023-05-29T02:49:32;14.10;1.00
48328;DHT22;34136;51.022;7.082;2023-05-29T02:52:19;13.90;1.00
48328;DHT22;34136;51.022;7.082;2023-05-29T02:55:05;13.80;1.00
48328;DHT22;34136;51.022;7.082;2023-05-29T02:57:52;13.80;1.00
48328;DHT22;34136;51.022;7.082;2023-05-29T03:00:39;13.80;1.00
48328;DHT22;34136;51.022;7.082;2023-05-29T03:03:25;13.80;1.00
48328;DHT22;34136;51.022;7.082;2023-05-29T03:06:12;13.80;1.00
48328;DHT22;34136;51.022;7.082;2023-05-29T03:08:59;13.70;1.00
48328;DHT22;34136;51.022;7.082;2023-05-29T03:11:46;13.60;1.00
48328;DHT22;34136;51.022;7.082;2023-05-29T03:14:32;13.50;1.00
48328;DHT22;34136;51.022;7.082;2023-05-29T03:17:19;13.40;1.00
48328;DHT22;34136;51.022;7.082;2023-05-29T03:20:06;13.50;1.00
48328;DHT22;34136;51.022;7.082;2023-05-29T03:22:52;13.50;1.00
48328;DHT22;34136;51.022;7.082;2023-05-29T03:25:39;13.60;1.00
48328;DHT22;34136;51.022;7.082;2023-05-29T03:28:26;13.40;1.00
48328;DHT22;34136;51.022;7.082;2023-05-29T03:31:13;13.20;1.00
48328;DHT22;34136;51.022;7.082;2023-05-29T03:33:59;13.10;1.00
48328;DHT22;34136;51.022;7.082;2023-05-29T03:36:58;13.00;1.00
48328;DHT22;34136;51.022;7.082;2023-05-29T03:39:46;13.00;1.00
48328;DHT22;34136;51.022;7.082;2023-05-29T03:42:33;12.90;1.00
48328;DHT22;34136;51.022;7.082;2023-05-29T03:45:21;13.00;1.00
48328;DHT22;34136;51.022;7.082;2023-05-29T03:48:07;13.00;1.00
48328;DHT22;34136;51.022;7.082;2023-05-29T03:50:53;13.00;1.00
48328;DHT22;34136;51.022;7.082;2023-05-29T03:53:46;13.10;1.00
48328;DHT22;34136;51.022;7.082;2023-05-29T03:56:32;12.90;1.00
48328;DHT22;34136;51.022;7.082;2023-05-29T03:59:19;13.00;1.00
48328;DHT22;34136;51.022;7.082;2023-05-29T04:02:07;13.00;1.00
48328;DHT22;34136;51.022;7.082;2023-05-29T04:04:54;12.90;1.00
48328;DHT22;34136;51.022;7.082;2023-05-29T04:07:41;12.90;1.00
48328;DHT22;34136;51.022;7.082;2023-05-29T04:10:28;12.90;1.00
48328;DHT22;34136;51.022;7.082;2023-05-29T04:13:14;13.00;1.00
48328;DHT22;34136;51.022;7.082;2023-05-29T04:16:00;13.00;1.00
48328;DHT22;34136;51.022;7.082;2023-05-29T04:18:47;13.00;1.00
48328;DHT22;34136;51.022;7.082;2023-05-29T04:21:33;13.00;1.00
48328;DHT22;34136;51.022;7.082;2023-05-29T04:24:20;13.00;1.00
48328;DHT22;34136;51.022;7.082;2023-05-29T04:27:07;13.00;1.00
48328;DHT22;34136;51.022;7.082;2023-05-29T04:29:54;13.00;1.00
48328;DHT22;34136;51.022;7.082;2023-05-29T04:32:40;13.00;1.00
48328;DHT22;34136;51.022;7.082;2023-05-29T04:35:26;13.00;1.00
48328;DHT22;34136;51.022;7.082;2023-05-29T04:38:17;13.10;1.00
48328;DHT22;34136;51.022;7.082;2023-05-29T04:41:04;13.30;1.00
48328;DHT22;34136;51.022;7.082;2023-05-29T04:43:50;13.50;1.00
48328;DHT22;34136;51.022;7.082;2023-05-29T04:46:38;13.60;1.00
48328;DHT22;34136;51.022;7.082;2023-05-29T04:49:24;13.60;1.00
48328;DHT22;34136;51.022;7.082;2023-05-29T04:52:11;13.70;1.00
48328;DHT22;34136;51.022;7.082;2023-05-29T04:54:57;13.80;1.00
48328;DHT22;34136;51.022;7.082;2023-05-29T04:57:43;13.80;1.00
48328;DHT22;34136;51.022;7.082;2023-05-29T05:00:30;13.90;1.00
48328;DHT22;34136;51.022;7.082;2023-05-29T05:03:16;14.00;1.00
48328;DHT22;34136;51.022;7.082;2023-05-29T05:06:03;14.20;1.00
48328;DHT22;34136;51.022;7.082;2023-05-29T05:08:51;14.30;1.00
48328;DHT22;34136;51.022;7.082;2023-05-29T05:11:38;14.30;1.00
48328;DHT22;34136;51.022;7.082;2023-05-29T05:14:25;14.30;1.00
48328;DHT22;34136;51.022;7.082;2023-05-29T05:17:12;14.30;1.00
48328;DHT22;34136;51.022;7.082;2023-05-29T05:19:58;14.50;1.00
48328;DHT22;34136;51.022;7.082;2023-05-29T05:22:45;14.50;1.00
48328;DHT22;34136;51.022;7.082;2023-05-29T05:25:31;14.70;1.00
48328;DHT22;34136;51.022;7.082;2023-05-29T05:28:19;14.80;1.00
48328;DHT22;34136;51.022;7.082;2023-05-29T05:31:05;15.00;1.00
48328;DHT22;34136;51.022;7.082;2023-05-29T05:33:52;15.30;1.00
48328;DHT22;34136;51.022;7.082;2023-05-29T05:36:39;15.50;1.00
48328;DHT22;34136;51.022;7.082;2023-05-29T05:39:30;15.40;1.00
48328;DHT22;34136;51.022;7.082;2023-05-29T05:42:17;15.50;1.00
48328;DHT22;34136;51.022;7.082;2023-05-29T05:45:15;15.70;1.00
48328;DHT22;34136;51.022;7.082;2023-05-29T05:48:01;15.80;1.00
48328;DHT22;34136;51.022;7.082;2023-05-29T05:50:48;15.80;1.00
48328;DHT22;34136;51.022;7.082;2023-05-29T05:53:34;15.70;1.00
48328;DHT22;34136;51.022;7.082;2023-05-29T05:56:21;15.80;1.00
48328;DHT22;34136;51.022;7.082;2023-05-29T05:59:07;15.80;1.00
48328;DHT22;34136;51.022;7.082;2023-05-29T06:01:53;15.90;1.00
48328;DHT22;34136;51.022;7.082;2023-05-29T06:04:40;16.00;1.00
48328;DHT22;34136;51.022;7.082;2023-05-29T06:07:28;16.30;1.00
48328;DHT22;34136;51.022;7.082;2023-05-29T06:10:14;16.30;1.00
48328;DHT22;34136;51.022;7.082;2023-05-29T06:13:01;16.10;1.00
48328;DHT22;34136;51.022;7.082;2023-05-29T06:15:57;16.30;1.00
48328;DHT22;34136;51.022;7.082;2023-05-29T06:18:44;16.60;1.00
48328;DHT22;34136;51.022;7.082;2023-05-29T06:21:31;16.80;1.00
48328;DHT22;34136;51.022;7.082;2023-05-29T06:24:18;17.20;1.00
48328;DHT22;34136;51.022;7.082;2023-05-29T06:27:04;17.40;1.00
48328;DHT22;34136;51.022;7.082;2023-05-29T06:29:51;17.20;1.00
48328;DHT22;34136;51.022;7.082;2023-05-29T06:32:37;17.40;1.00
48328;DHT22;34136;51.022;7.082;2023-05-29T06:35:26;17.40;1.00
48328;DHT22;34136;51.022;7.082;2023-05-29T06:38:13;17.70;1.00
48328;DHT22;34136;51.022;7.082;2023-05-29T06:40:59;18.00;1.00
48328;DHT22;34136;51.022;7.082;2023-05-29T06:43:45;18.10;1.40
48328;DHT22;34136;51.022;7.082;2023-05-29T06:46:33;18.40;99.90
48328;DHT22;34136;51.022;7.082;2023-05-29T06:49:20;18.30;99.90
48328;DHT22;34136;51.022;7.082;2023-05-29T06:52:07;18.30;1.40
48328;DHT22;34136;51.022;7.082;2023-05-29T06:55:12;18.70;99.90
48328;DHT22;34136;51.022;7.082;2023-05-29T06:57:59;18.40;99.90
48328;DHT22;34136;51.022;7.082;2023-05-29T07:00:46;18.60;99.90
48328;DHT22;34136;51.022;7.082;2023-05-29T07:03:46;18.40;99.90
48328;DHT22;34136;51.022;7.082;2023-05-29T07:06:33;18.60;99.90
48328;DHT22;34136;51.022;7.082;2023-05-29T07:09:20;18.40;99.90
48328;DHT22;34136;51.022;7.082;2023-05-29T07:12:07;18.70;99.90
48328;DHT22;34136;51.022;7.082;2023-05-29T07:14:54;18.70;99.90
48328;DHT22;34136;51.022;7.082;2023-05-29T07:17:40;18.70;99.90
48328;DHT22;34136;51.022;7.082;2023-05-29T07:20:47;19.20;99.90
48328;DHT22;34136;51.022;7.082;2023-05-29T07:23:36;19.80;99.90
48328;DHT22;34136;51.022;7.082;2023-05-29T07:26:23;19.80;99.90
48328;DHT22;34136;51.022;7.082;2023-05-29T07:29:10;19.70;99.90
48328;DHT22;34136;51.022;7.082;2023-05-29T07:31:55;19.80;99.90
48328;DHT22;34136;51.022;7.082;2023-05-29T07:34:43;20.00;99.90
48328;DHT22;34136;51.022;7.082;2023-05-29T07:37:29;20.10;99.90
48328;DHT22;34136;51.022;7.082;2023-05-29T07:40:15;20.20;99.90
48328;DHT22;34136;51.022;7.082;2023-05-29T07:43:24;20.00;99.90
48328;DHT22;34136;51.022;7.082;2023-05-29T07:46:15;20.20;99.90
48328;DHT22;34136;51.022;7.082;2023-05-29T07:49:02;20.40;99.90
48328;DHT22;34136;51.022;7.082;2023-05-29T07:51:48;20.40;99.90
48328;DHT22;34136;51.022;7.082;2023-05-29T07:54:35;20.40;99.90
48328;DHT22;34136;51.022;7.082;2023-05-29T07:57:22;20.60;99.90
48328;DHT22;34136;51.022;7.082;2023-05-29T08:00:10;20.20;99.90
48328;DHT22;34136;51.022;7.082;2023-05-29T08:03:05;20.30;99.90
48328;DHT22;34136;51.022;7.082;2023-05-29T08:05:51;20.60;99.90
48328;DHT22;34136;51.022;7.082;2023-05-29T08:08:39;20.80;99.90
48328;DHT22;34136;51.022;7.082;2023-05-29T08:11:26;20.80;99.90
48328;DHT22;34136;51.022;7.082;2023-05-29T08:14:14;20.80;99.90
48328;DHT22;34136;51.022;7.082;2023-05-29T08:17:04;21.10;99.90
48328;DHT22;34136;51.022;7.082;2023-05-29T08:19:51;21.10;99.90
48328;DHT22;34136;51.022;7.082;2023-05-29T08:22:37;21.10;99.90
48328;DHT22;34136;51.022;7.082;2023-05-29T08:25:23;21.00;99.90
48328;DHT22;34136;51.022;7.082;2023-05-29T08:28:10;21.10;99.90
48328;DHT22;34136;51.022;7.082;2023-05-29T08:30:57;21.00;99.90
48328;DHT22;34136;51.022;7.082;2023-05-29T08:33:43;21.20;99.90
48328;DHT22;34136;51.022;7.082;2023-05-29T08:36:29;21.10;99.90
48328;DHT22;34136;51.022;7.082;2023-05-29T08:39:16;21.00;99.90
48328;DHT22;34136;51.022;7.082;2023-05-29T08:42:10;21.00;99.90
48328;DHT22;34136;51.022;7.082;2023-05-29T08:45:02;20.90;99.90
48328;DHT22;34136;51.022;7.082;2023-05-29T08:47:52;20.90;99.90
48328;DHT22;34136;51.022;7.082;2023-05-29T08:50:43;21.00;99.90
48328;DHT22;34136;51.022;7.082;2023-05-29T08:53:30;21.00;99.90
48328;DHT22;34136;51.022;7.082;2023-05-29T08:56:22;21.20;99.90
48328;DHT22;34136;51.022;7.082;2023-05-29T08:59:12;21.00;99.90
48328;DHT22;34136;51.022;7.082;2023-05-29T09:01:59;20.90;99.90
48328;DHT22;34136;51.022;7.082;2023-05-29T09:04:45;21.10;99.90
48328;DHT22;34136;51.022;7.082;2023-05-29T09:07:32;21.80;99.90
48328;DHT22;34136;51.022;7.082;2023-05-29T09:10:18;22.30;99.90
48328;DHT22;34136;51.022;7.082;2023-05-29T09:13:05;22.50;99.90
48328;DHT22;34136;51.022;7.082;2023-05-29T09:15:57;22.40;99.90
48328;DHT22;34136;51.022;7.082;2023-05-29T09:18:44;22.20;99.90
48328;DHT22;34136;51.022;7.082;2023-05-29T09:21:30;22.30;99.90
48328;DHT22;34136;51.022;7.082;2023-05-29T09:24:16;22.20;99.90
48328;DHT22;34136;51.022;7.082;2023-05-29T09:27:03;22.30;99.90
48328;DHT22;34136;51.022;7.082;2023-05-29T09:29:50;22.20;99.90
48328;DHT22;34136;51.022;7.082;2023-05-29T09:32:36;22.10;99.90
48328;DHT22;34136;51.022;7.082;2023-05-29T09:35:23;21.70;99.90
48328;DHT22;34136;51.022;7.082;2023-05-29T09:38:11;22.00;99.90
48328;DHT22;34136;51.022;7.082;2023-05-29T09:41:03;21.40;99.90
48328;DHT22;34136;51.022;7.082;2023-05-29T09:43:50;21.50;99.90
48328;DHT22;34136;51.022;7.082;2023-05-29T09:46:36;21.40;99.90
48328;DHT22;34136;51.022;7.082;2023-05-29T09:49:22;22.20;99.90
48328;DHT22;34136;51.022;7.082;2023-05-29T09:52:12;22.10;99.90
48328;DHT22;34136;51.022;7.082;2023-05-29T09:54:58;22.00;99.90
48328;DHT22;34136;51.022;7.082;2023-05-29T09:57:47;22.30;99.90
48328;DHT22;34136;51.022;7.082;2023-05-29T10:00:33;22.10;99.90
48328;DHT22;34136;51.022;7.082;2023-05-29T10:03:20;22.30;99.90
48328;DHT22;34136;51.022;7.082;2023-05-29T10:06:07;22.30;99.90
48328;DHT22;34136;51.022;7.082;2023-05-29T10:08:55;22.30;99.90
48328;DHT22;34136;51.022;7.082;2023-05-29T10:11:43;22.40;99.90
48328;DHT22;34136;51.022;7.082;2023-05-29T10:14:32;22.30;99.90
48328;DHT22;34136;51.022;7.082;2023-05-29T10:17:23;22.40;99.90
48328;DHT22;34136;51.022;7.082;2023-05-29T10:20:14;22.50;99.90
48328;DHT22;34136;51.022;7.082;2023-05-29T10:23:03;22.20;99.90
48328;DHT22;34136;51.022;7.082;2023-05-29T10:25:57;22.20;99.90
48328;DHT22;34136;51.022;7.082;2023-05-29T10:35:20;22.50;99.90
48328;DHT22;34136;51.022;7.082;2023-05-29T10:38:16;22.70;99.90
48328;DHT22;34136;51.022;7.082;2023-05-29T10:47:26;22.50;99.90
48328;DHT22;34136;51.022;7.082;2023-05-29T10:50:13;22.50;99.90
48328;DHT22;34136;51.022;7.082;2023-05-29T10:52:59;22.90;99.90
48328;DHT22;34136;51.022;7.082;2023-05-29T10:55:45;23.40;99.90
48328;DHT22;34136;51.022;7.082;2023-05-29T10:58:32;23.10;99.90
48328;DHT22;34136;51.022;7.082;2023-05-29T11:01:21;23.30;99.90
48328;DHT22;34136;51.022;7.082;2023-05-29T11:07:01;23.00;99.90
48328;DHT22;34136;51.022;7.082;2023-05-29T11:09:47;23.00;99.90
48328;DHT22;34136;51.022;7.082;2023-05-29T11:12:33;22.50;99.90
48328;DHT22;34136;51.022;7.082;2023-05-29T11:15:19;22.40;99.90
48328;DHT22;34136;51.022;7.082;2023-05-29T11:18:07;22.70;99.90
48328;DHT22;34136;51.022;7.082;2023-05-29T11:20:57;23.00;99.90
48328;DHT22;34136;51.022;7.082;2023-05-29T11:23:47;23.30;99.90
48328;DHT22;34136;51.022;7.082;2023-05-29T11:26:35;23.60;99.90
48328;DHT22;34136;51.022;7.082;2023-05-29T11:29:32;23.30;99.90
48328;DHT22;34136;51.022;7.082;2023-05-29T11:32:19;23.30;99.90
48328;DHT22;34136;51.022;7.082;2023-05-29T11:35:07;23.20;99.90
48328;DHT22;34136;51.022;7.082;2023-05-29T11:37:54;24.00;99.90
48328;DHT22;34136;51.022;7.082;2023-05-29T11:40:41;24.10;99.90
48328;DHT22;34136;51.022;7.082;2023-05-29T11:43:28;23.70;99.90
48328;DHT22;34136;51.022;7.082;2023-05-29T11:46:18;23.70;99.90
48328;DHT22;34136;51.022;7.082;2023-05-29T11:49:05;23.70;99.90
48328;DHT22;34136;51.022;7.082;2023-05-29T11:51:51;24.20;99.90
48328;DHT22;34136;51.022;7.082;2023-05-29T11:54:37;24.20;99.90
48328;DHT22;34136;51.022;7.082;2023-05-29T11:57:23;24.50;99.90
48328;DHT22;34136;51.022;7.082;2023-05-29T12:00:20;24.10;99.90
48328;DHT22;34136;51.022;7.082;2023-05-29T12:03:06;24.20;99.90
48328;DHT22;34136;51.022;7.082;2023-05-29T12:05:52;23.80;99.90
48328;DHT22;34136;51.022;7.082;2023-05-29T12:08:39;23.70;99.90
48328;DHT22;34136;51.022;7.082;2023-05-29T12:11:25;23.80;99.90
48328;DHT22;34136;51.022;7.082;2023-05-29T12:14:12;24.00;99.90
48328;DHT22;34136;51.022;7.082;2023-05-29T12:16:58;24.20;99.90
48328;DHT22;34136;51.022;7.082;2023-05-29T12:19:45;24.40;99.90
48328;DHT22;34136;51.022;7.082;2023-05-29T12:22:39;24.20;99.90
48328;DHT22;34136;51.022;7.082;2023-05-29T12:25:26;24.50;99.90
48328;DHT22;34136;51.022;7.082;2023-05-29T12:28:16;24.60;99.90
48328;DHT22;34136;51.022;7.082;2023-05-29T12:31:02;24.50;99.90
48328;DHT22;34136;51.022;7.082;2023-05-29T12:33:49;24.30;99.90
48328;DHT22;34136;51.022;7.082;2023-05-29T12:36:35;24.70;99.90
48328;DHT22;34136;51.022;7.082;2023-05-29T12:39:22;24.10;99.90
48328;DHT22;34136;51.022;7.082;2023-05-29T12:42:09;23.90;99.90
48328;DHT22;34136;51.022;7.082;2023-05-29T12:45:01;23.90;99.90
48328;DHT22;34136;51.022;7.082;2023-05-29T12:47:58;23.80;99.90
48328;DHT22;34136;51.022;7.082;2023-05-29T12:50:49;23.70;99.90
48328;DHT22;34136;51.022;7.082;2023-05-29T12:53:35;23.90;99.90
48328;DHT22;34136;51.022;7.082;2023-05-29T12:56:23;24.20;99.90
48328;DHT22;34136;51.022;7.082;2023-05-29T12:59:10;23.60;99.90
48328;DHT22;34136;51.022;7.082;2023-05-29T13:01:56;23.50;99.90
48328;DHT22;34136;51.022;7.082;2023-05-29T13:04:43;23.40;99.90
48328;DHT22;34136;51.022;7.082;2023-05-29T13:07:29;23.60;99.90
48328;DHT22;34136;51.022;7.082;2023-05-29T13:10:16;23.90;99.90
48328;DHT22;34136;51.022;7.082;2023-05-29T13:13:02;23.60;99.90
48328;DHT22;34136;51.022;7.082;2023-05-29T13:15:48;23.40;99.90
48328;DHT22;34136;51.022;7.082;2023-05-29T13:18:35;23.60;99.90
48328;DHT22;34136;51.022;7.082;2023-05-29T13:21:21;23.50;99.90
48328;DHT22;34136;51.022;7.082;2023-05-29T13:24:07;23.80;99.90
48328;DHT22;34136;51.022;7.082;2023-05-29T13:26:53;23.70;99.90
48328;DHT22;34136;51.022;7.082;2023-05-29T13:29:44;23.60;99.90
48328;DHT22;34136;51.022;7.082;2023-05-29T13:32:30;23.60;99.90
48328;DHT22;34136;51.022;7.082;2023-05-29T13:35:16;23.60;99.90
48328;DHT22;34136;51.022;7.082;2023-05-29T13:38:03;23.60;99.90
48328;DHT22;34136;51.022;7.082;2023-05-29T13:40:49;23.60;99.90
48328;DHT22;34136;51.022;7.082;2023-05-29T13:43:36;23.60;99.90
48328;DHT22;34136;51.022;7.082;2023-05-29T13:46:22;23.80;99.90
48328;DHT22;34136;51.022;7.082;2023-05-29T13:49:10;23.90;99.90
48328;DHT22;34136;51.022;7.082;2023-05-29T13:51:56;23.90;99.90
48328;DHT22;34136;51.022;7.082;2023-05-29T13:54:42;24.00;99.90
48328;DHT22;34136;51.022;7.082;2023-05-29T13:57:29;24.20;99.90
48328;DHT22;34136;51.022;7.082;2023-05-29T14:00:16;24.20;99.90
48328;DHT22;34136;51.022;7.082;2023-05-29T14:03:02;24.00;99.90
48328;DHT22;34136;51.022;7.082;2023-05-29T14:05:48;24.10;99.90
48328;DHT22;34136;51.022;7.082;2023-05-29T14:08:34;23.80;99.90
48328;DHT22;34136;51.022;7.082;2023-05-29T14:11:21;23.70;99.90
48328;DHT22;34136;51.022;7.082;2023-05-29T14:14:08;23.70;99.90
48328;DHT22;34136;51.022;7.082;2023-05-29T14:16:54;23.90;99.90
48328;DHT22;34136;51.022;7.082;2023-05-29T14:19:41;24.00;99.90
48328;DHT22;34136;51.022;7.082;2023-05-29T14:22:27;23.90;99.90
48328;DHT22;34136;51.022;7.082;2023-05-29T14:25:13;23.80;99.90
48328;DHT22;34136;51.022;7.082;2023-05-29T14:28:02;23.70;99.90
48328;DHT22;34136;51.022;7.082;2023-05-29T14:30:51;23.80;99.90
48328;DHT22;34136;51.022;7.082;2023-05-29T14:33:37;23.90;99.90
48328;DHT22;34136;51.022;7.082;2023-05-29T14:36:26;24.00;99.90
48328;DHT22;34136;51.022;7.082;2023-05-29T14:39:12;24.00;99.90
48328;DHT22;34136;51.022;7.082;2023-05-29T14:42:01;23.90;99.90
48328;DHT22;34136;51.022;7.082;2023-05-29T14:44:49;23.50;99.90
48328;DHT22;34136;51.022;7.082;2023-05-29T14:47:36;23.40;99.90
48328;DHT22;34136;51.022;7.082;2023-05-29T14:50:22;23.40;99.90
48328;DHT22;34136;51.022;7.082;2023-05-29T14:53:09;23.20;99.90
48328;DHT22;34136;51.022;7.082;2023-05-29T14:55:55;23.30;99.90
48328;DHT22;34136;51.022;7.082;2023-05-29T14:58:41;23.30;99.90
48328;DHT22;34136;51.022;7.082;2023-05-29T15:01:27;23.00;99.90
48328;DHT22;34136;51.022;7.082;2023-05-29T15:04:13;23.30;99.90
48328;DHT22;34136;51.022;7.082;2023-05-29T15:07:00;23.30;99.90
48328;DHT22;34136;51.022;7.082;2023-05-29T15:09:48;23.30;99.90
48328;DHT22;34136;51.022;7.082;2023-05-29T15:12:36;23.20;99.90
48328;DHT22;34136;51.022;7.082;2023-05-29T15:15:25;23.30;99.90
48328;DHT22;34136;51.022;7.082;2023-05-29T15:22:13;23.30;99.90
48328;DHT22;34136;51.022;7.082;2023-05-29T15:25:30;23.10;99.90
48328;DHT22;34136;51.022;7.082;2023-05-29T15:28:19;23.10;99.90
48328;DHT22;34136;51.022;7.082;2023-05-29T15:31:09;23.10;99.90
48328;DHT22;34136;51.022;7.082;2023-05-29T15:33:57;23.10;99.90
48328;DHT22;34136;51.022;7.082;2023-05-29T15:36:45;23.20;99.90
48328;DHT22;34136;51.022;7.082;2023-05-29T15:39:33;23.00;99.90
48328;DHT22;34136;51.022;7.082;2023-05-29T15:42:21;22.70;99.90
48328;DHT22;34136;51.022;7.082;2023-05-29T15:45:36;22.50;99.90
48328;DHT22;34136;51.022;7.082;2023-05-29T15:48:30;22.30;99.90
48328;DHT22;34136;51.022;7.082;2023-05-29T15:51:16;22.40;99.90
48328;DHT22;34136;51.022;7.082;2023-05-29T15:54:02;22.50;99.90
48328;DHT22;34136;51.022;7.082;2023-05-29T15:56:49;22.50;99.90
48328;DHT22;34136;51.022;7.082;2023-05-29T15:59:35;22.30;99.90
48328;DHT22;34136;51.022;7.082;2023-05-29T16:02:21;22.30;99.90
48328;DHT22;34136;51.022;7.082;2023-05-29T16:05:08;22.30;99.90
48328;DHT22;34136;51.022;7.082;2023-05-29T16:07:54;22.20;99.90
48328;DHT22;34136;51.022;7.082;2023-05-29T16:10:41;22.10;99.90
48328;DHT22;34136;51.022;7.082;2023-05-29T16:13:27;22.20;99.90
48328;DHT22;34136;51.022;7.082;2023-05-29T16:16:13;22.30;99.90
48328;DHT22;34136;51.022;7.082;2023-05-29T16:19:00;22.50;99.90
48328;DHT22;34136;51.022;7.082;2023-05-29T16:21:46;22.50;99.90
48328;DHT22;34136;51.022;7.082;2023-05-29T16:24:33;22.70;99.90
48328;DHT22;34136;51.022;7.082;2023-05-29T16:27:19;22.50;99.90
48328;DHT22;34136;51.022;7.082;2023-05-29T16:30:06;22.30;99.90
48328;DHT22;34136;51.022;7.082;2023-05-29T16:32:53;22.30;99.90
48328;DHT22;34136;51.022;7.082;2023-05-29T16:35:39;22.10;99.90
48328;DHT22;34136;51.022;7.082;2023-05-29T16:38:25;21.70;99.90
48328;DHT22;34136;51.022;7.082;2023-05-29T16:41:11;21.80;99.90
48328;DHT22;34136;51.022;7.082;2023-05-29T16:43:57;21.80;99.90
48328;DHT22;34136;51.022;7.082;2023-05-29T16:46:43;21.90;99.90
48328;DHT22;34136;51.022;7.082;2023-05-29T16:49:29;22.20;99.90
48328;DHT22;34136;51.022;7.082;2023-05-29T16:52:16;22.30;99.90
48328;DHT22;34136;51.022;7.082;2023-05-29T16:55:02;22.20;99.90
48328;DHT22;34136;51.022;7.082;2023-05-29T16:57:48;21.90;99.90
48328;DHT22;34136;51.022;7.082;2023-05-29T17:00:35;21.90;99.90
48328;DHT22;34136;51.022;7.082;2023-05-29T17:03:21;22.00;99.90
48328;DHT22;34136;51.022;7.082;2023-05-29T17:06:07;21.90;99.90
48328;DHT22;34136;51.022;7.082;2023-05-29T17:08:54;22.00;99.90
48328;DHT22;34136;51.022;7.082;2023-05-29T17:11:41;22.00;99.90
48328;DHT22;34136;51.022;7.082;2023-05-29T17:14:27;21.90;99.90
48328;DHT22;34136;51.022;7.082;2023-05-29T17:17:13;21.90;99.90
48328;DHT22;34136;51.022;7.082;2023-05-29T17:20:00;21.70;99.90
48328;DHT22;34136;51.022;7.082;2023-05-29T17:22:46;21.80;99.90
48328;DHT22;34136;51.022;7.082;2023-05-29T17:25:32;21.80;99.90
48328;DHT22;34136;51.022;7.082;2023-05-29T17:28:18;21.70;99.90
48328;DHT22;34136;51.022;7.082;2023-05-29T17:31:05;21.70;99.90
48328;DHT22;34136;51.022;7.082;2023-05-29T17:33:51;21.60;99.90
48328;DHT22;34136;51.022;7.082;2023-05-29T17:36:37;21.40;99.90
48328;DHT22;34136;51.022;7.082;2023-05-29T17:39:24;21.30;99.90
48328;DHT22;34136;51.022;7.082;2023-05-29T17:42:10;21.30;99.90
48328;DHT22;34136;51.022;7.082;2023-05-29T17:44:56;21.30;99.90
48328;DHT22;34136;51.022;7.082;2023-05-29T17:47:42;21.20;99.90
48328;DHT22;34136;51.022;7.082;2023-05-29T17:50:28;21.30;99.90
48328;DHT22;34136;51.022;7.082;2023-05-29T17:53:15;21.30;99.90
48328;DHT22;34136;51.022;7.082;2023-05-29T17:56:01;21.20;99.90
48328;DHT22;34136;51.022;7.082;2023-05-29T17:58:48;21.20;99.90
48328;DHT22;34136;51.022;7.082;2023-05-29T18:01:34;21.10;99.90
48328;DHT22;34136;51.022;7.082;2023-05-29T18:04:21;21.10;99.90
48328;DHT22;34136;51.022;7.082;2023-05-29T18:07:07;20.90;99.90
48328;DHT22;34136;51.022;7.082;2023-05-29T18:09:53;21.00;99.90
48328;DHT22;34136;51.022;7.082;2023-05-29T18:12:39;21.10;99.90
48328;DHT22;34136;51.022;7.082;2023-05-29T18:15:25;21.00;99.90